createdAt,value
2019-05-01T00:00:57.150Z,2.50
2019-05-01T00:01:57.141Z,2.60
2019-05-01T00:02:57.127Z,3.10
2019-05-01T00:03:57.131Z,2.80
2019-05-01T00:04:57.127Z,2.90
2019-05-01T00:05:57.099Z,2.80
2019-05-01T00:06:57.101Z,2.70
2019-05-01T00:07:57.070Z,2.80
2019-05-01T00:08:57.079Z,3.10
2019-05-01T00:09:57.055Z,2.80
2019-05-01T00:10:57.039Z,2.90
2019-05-01T00:11:57.030Z,2.70
2019-05-01T00:12:57.021Z,3.00
2019-05-01T00:13:57.030Z,3.00
2019-05-01T00:14:57.003Z,2.90
2019-05-01T00:15:56.987Z,2.70
2019-05-01T00:16:56.985Z,2.70
2019-05-01T00:17:56.965Z,3.10
2019-05-01T00:18:56.950Z,2.90
2019-05-01T00:19:56.961Z,3.00
2019-05-01T00:20:56.937Z,3.00
2019-05-01T00:21:56.919Z,2.70
2019-05-01T00:22:56.909Z,2.50
2019-05-01T00:23:56.906Z,3.00
2019-05-01T00:24:56.904Z,2.90
2019-05-01T00:25:56.873Z,2.80
2019-05-01T00:26:56.866Z,2.60
2019-05-01T00:27:56.859Z,3.00
2019-05-01T00:28:56.844Z,3.10
2019-05-01T00:29:56.848Z,2.90
2019-05-01T00:30:56.820Z,3.00
2019-05-01T00:31:56.821Z,2.80
2019-05-01T00:32:56.800Z,3.00
2019-05-01T00:33:56.821Z,2.90
2019-05-01T00:34:56.817Z,3.10
2019-05-01T00:35:56.767Z,3.20
2019-05-01T00:36:56.762Z,3.40
2019-05-01T00:37:56.742Z,3.30
2019-05-01T00:38:56.737Z,2.70
2019-05-01T00:39:56.744Z,3.20
2019-05-01T00:40:56.714Z,2.90
2019-05-01T00:41:56.701Z,3.00
2019-05-01T00:42:56.696Z,3.10
2019-05-01T00:43:56.685Z,3.00
2019-05-01T00:44:56.698Z,3.10
2019-05-01T00:45:56.665Z,3.20
2019-05-01T00:46:56.645Z,3.20
2019-05-01T00:47:56.652Z,3.10
2019-05-01T00:48:56.630Z,2.90
2019-05-01T00:49:56.622Z,3.00
2019-05-01T00:50:56.621Z,3.20
2019-05-01T00:51:56.596Z,3.00
2019-05-01T00:52:56.589Z,3.20
2019-05-01T00:53:56.568Z,3.00
2019-05-01T00:54:56.562Z,3.20
2019-05-01T00:55:56.568Z,3.10
2019-05-01T00:56:56.541Z,3.30
2019-05-01T00:57:56.531Z,3.10
2019-05-01T00:58:56.528Z,3.00
2019-05-01T00:59:56.509Z,3.30
2019-05-01T01:00:56.515Z,3.20
2019-05-01T01:01:56.489Z,3.60
2019-05-01T01:02:56.475Z,3.00
2019-05-01T01:03:56.460Z,3.20
2019-05-01T01:04:56.458Z,3.30
2019-05-01T01:05:56.452Z,3.10
2019-05-01T01:06:56.428Z,3.30
2019-05-01T01:07:56.417Z,3.40
2019-05-01T01:08:56.414Z,3.30
2019-05-01T01:09:56.394Z,3.60
2019-05-01T01:10:56.400Z,3.20
2019-05-01T01:11:56.377Z,3.40
2019-05-01T01:12:56.366Z,3.20
2019-05-01T01:13:56.356Z,3.10
2019-05-01T01:14:56.343Z,3.10
2019-05-01T01:15:56.353Z,3.00
2019-05-01T01:16:56.319Z,3.20
2019-05-01T01:17:56.309Z,3.30
2019-05-01T01:18:56.306Z,3.00
2019-05-01T01:19:56.295Z,3.00
2019-05-01T01:20:56.285Z,3.00
2019-05-01T01:21:56.269Z,3.00
2019-05-01T01:22:56.254Z,2.90
2019-05-01T01:23:56.246Z,2.90
2019-05-01T01:24:56.231Z,3.00
2019-05-01T01:25:56.237Z,3.20
2019-05-01T01:26:56.210Z,3.20
2019-05-01T01:27:56.269Z,2.90
2019-05-01T01:28:56.189Z,2.90
2019-05-01T01:29:56.179Z,3.20
2019-05-01T01:30:56.929Z,3.30
2019-05-01T01:31:56.156Z,3.20
2019-05-01T01:32:56.149Z,3.20
2019-05-01T01:33:56.135Z,3.10
2019-05-01T01:34:56.131Z,3.20
2019-05-01T01:35:56.146Z,3.50
2019-05-01T01:36:56.107Z,3.30
2019-05-01T01:37:56.092Z,3.00
2019-05-01T01:38:56.079Z,3.40
2019-05-01T01:39:56.074Z,3.20
2019-05-01T01:40:56.057Z,3.10
2019-05-01T01:41:56.064Z,3.30
2019-05-01T01:42:56.035Z,3.10
2019-05-01T01:43:56.030Z,3.50
2019-05-01T01:44:56.021Z,3.20
2019-05-01T01:45:56.102Z,3.50
2019-05-01T01:46:56.249Z,3.30
2019-05-01T01:47:56.033Z,3.10
2019-05-01T01:48:56.030Z,3.10
2019-05-01T01:49:56.040Z,3.20
2019-05-01T01:50:55.985Z,3.50
2019-05-01T01:51:56.082Z,3.40
2019-05-01T01:52:56.023Z,3.50
2019-05-01T01:53:55.989Z,3.20
2019-05-01T01:54:56.083Z,3.20
2019-05-01T01:55:55.970Z,3.20
2019-05-01T01:56:56.007Z,3.20
2019-05-01T01:57:56.019Z,3.00
2019-05-01T01:58:55.913Z,3.20
2019-05-01T01:59:55.952Z,3.60
2019-05-01T02:01:08.476Z,3.20
2019-05-01T02:01:56.935Z,3.20
2019-05-01T02:02:55.923Z,3.30
2019-05-01T02:03:55.822Z,3.30
2019-05-01T02:04:55.920Z,3.30
2019-05-01T02:05:55.801Z,3.50
2019-05-01T02:06:55.800Z,3.30
2019-05-01T02:07:55.779Z,3.30
2019-05-01T02:08:56.888Z,3.50
2019-05-01T02:09:55.762Z,3.70
2019-05-01T02:10:55.910Z,3.80
2019-05-01T02:11:55.751Z,3.60
2019-05-01T02:12:55.729Z,3.80
2019-05-01T02:13:55.715Z,3.80
2019-05-01T02:14:55.700Z,3.50
2019-05-01T02:15:55.692Z,3.80
2019-05-01T02:16:55.696Z,3.90
2019-05-01T02:17:55.669Z,3.90
2019-05-01T02:18:55.660Z,3.70
2019-05-01T02:19:55.654Z,3.90
2019-05-01T02:20:55.639Z,3.80
2019-05-01T02:21:55.657Z,3.80
2019-05-01T02:22:55.618Z,3.80
2019-05-01T02:23:55.605Z,3.60
2019-05-01T02:24:55.597Z,3.60
2019-05-01T02:25:55.597Z,3.80
2019-05-01T02:26:55.593Z,4.00
2019-05-01T02:27:55.563Z,3.90
2019-05-01T02:28:55.554Z,4.20
2019-05-01T02:29:55.563Z,4.10
2019-05-01T02:30:55.531Z,3.70
2019-05-01T02:31:55.564Z,4.00
2019-05-01T02:32:55.514Z,4.30
2019-05-01T02:33:55.503Z,3.90
2019-05-01T02:34:55.489Z,4.30
2019-05-01T02:35:55.480Z,3.70
2019-05-01T02:36:55.503Z,3.60
2019-05-01T02:37:55.466Z,3.80
2019-05-01T02:38:55.453Z,4.40
2019-05-01T02:39:55.452Z,4.10
2019-05-01T02:40:55.439Z,4.10
2019-05-01T02:41:55.429Z,4.00
2019-05-01T02:42:55.429Z,3.90
2019-05-01T02:43:55.403Z,3.90
2019-05-01T02:44:55.388Z,4.00
2019-05-01T02:45:55.378Z,3.80
2019-05-01T02:46:55.363Z,4.10
2019-05-01T02:47:55.368Z,4.20
2019-05-01T02:48:55.347Z,4.40
2019-05-01T02:49:55.336Z,4.40
2019-05-01T02:50:55.319Z,4.60
2019-05-01T02:51:55.311Z,4.40
2019-05-01T02:52:55.312Z,4.40
2019-05-01T02:53:55.289Z,4.50
2019-05-01T02:54:55.296Z,4.50
2019-05-01T02:55:55.268Z,4.60
2019-05-01T02:56:55.256Z,4.80
2019-05-01T02:57:55.381Z,4.80
2019-05-01T02:58:55.235Z,4.20
2019-05-01T02:59:55.227Z,4.40
2019-05-01T03:00:55.215Z,4.60
2019-05-01T03:01:55.214Z,4.90
2019-05-01T03:02:55.207Z,4.70
2019-05-01T03:03:55.185Z,4.30
2019-05-01T03:04:55.181Z,4.80
2019-05-01T03:05:55.165Z,4.30
2019-05-01T03:06:55.146Z,4.50
2019-05-01T03:07:55.156Z,5.30
2019-05-01T03:08:55.135Z,4.80
2019-05-01T03:09:55.120Z,4.50
2019-05-01T03:10:55.106Z,4.90
2019-05-01T03:11:55.100Z,5.30
2019-05-01T03:12:55.104Z,5.00
2019-05-01T03:13:55.075Z,5.40
2019-05-01T03:14:55.071Z,4.40
2019-05-01T03:15:55.060Z,4.90
2019-05-01T03:16:56.013Z,4.60
2019-05-01T03:17:55.055Z,5.40
2019-05-01T03:18:55.024Z,4.80
2019-05-01T03:19:55.011Z,5.50
2019-05-01T03:20:55.004Z,4.80
2019-05-01T03:21:54.997Z,5.00
2019-05-01T03:22:55.021Z,4.70
2019-05-01T03:23:54.975Z,5.40
2019-05-01T03:24:54.957Z,5.20
2019-05-01T03:25:54.948Z,5.00
2019-05-01T03:26:54.941Z,5.10
2019-05-01T03:27:54.926Z,4.90
2019-05-01T03:28:54.925Z,5.40
2019-05-01T03:29:54.961Z,5.50
2019-05-01T03:30:54.896Z,5.00
2019-05-01T03:32:15.784Z,5.20
2019-05-01T03:32:55.874Z,4.90
2019-05-01T03:33:54.926Z,5.00
2019-05-01T03:34:54.853Z,5.10
2019-05-01T03:35:54.843Z,5.60
2019-05-01T03:36:54.829Z,4.90
2019-05-01T03:37:54.823Z,5.70
2019-05-01T03:38:54.819Z,5.20
2019-05-01T03:39:54.800Z,5.00
2019-05-01T03:40:54.789Z,5.10
2019-05-01T03:41:54.817Z,5.00
2019-05-01T03:42:54.772Z,5.00
2019-05-01T03:43:54.767Z,5.10
2019-05-01T03:44:54.739Z,5.30
2019-05-01T03:45:54.748Z,4.70
2019-05-01T03:46:54.735Z,5.10
2019-05-01T03:47:54.715Z,5.20
2019-05-01T03:48:54.717Z,4.80
2019-05-01T03:49:54.694Z,5.00
2019-05-01T03:50:54.681Z,4.90
2019-05-01T03:51:54.670Z,4.70
2019-05-01T03:52:54.657Z,4.90
2019-05-01T03:53:54.674Z,4.90
2019-05-01T03:54:54.656Z,5.00
2019-05-01T03:55:54.629Z,5.30
2019-05-01T03:56:54.619Z,5.00
2019-05-01T03:57:54.619Z,5.10
2019-05-01T03:58:54.616Z,5.10
2019-05-01T03:59:54.580Z,5.00
2019-05-01T04:00:54.575Z,5.10
2019-05-01T04:01:54.560Z,4.90
2019-05-01T04:02:54.552Z,5.20
2019-05-01T04:03:54.558Z,5.50
2019-05-01T04:04:54.537Z,5.40
2019-05-01T04:05:54.534Z,5.20
2019-05-01T04:06:54.514Z,5.30
2019-05-01T04:07:54.505Z,5.10
2019-05-01T04:08:54.509Z,5.30
2019-05-01T04:09:54.483Z,5.20
2019-05-01T04:10:54.465Z,5.10
2019-05-01T04:11:54.453Z,5.70
2019-05-01T04:12:54.445Z,5.50
2019-05-01T04:13:54.441Z,6.00
2019-05-01T04:14:54.448Z,5.90
2019-05-01T04:15:54.422Z,5.60
2019-05-01T04:16:54.406Z,6.20
2019-05-01T04:17:54.396Z,6.20
2019-05-01T04:18:54.403Z,6.10
2019-05-01T04:19:54.384Z,5.90
2019-05-01T04:20:54.368Z,6.10
2019-05-01T04:21:54.359Z,6.30
2019-05-01T04:22:54.348Z,6.20
2019-05-01T04:23:54.350Z,5.90
2019-05-01T04:24:54.328Z,6.50
2019-05-01T04:25:54.310Z,6.30
2019-05-01T04:26:54.297Z,6.20
2019-05-01T04:27:58.240Z,6.20
2019-05-01T04:28:54.277Z,6.10
2019-05-01T04:29:54.287Z,6.60
2019-05-01T04:30:54.259Z,6.30
2019-05-01T04:31:54.245Z,6.40
2019-05-01T04:32:54.242Z,6.40
2019-05-01T04:33:54.224Z,6.60
2019-05-01T04:34:54.233Z,6.60
2019-05-01T04:35:54.204Z,6.00
2019-05-01T04:36:54.195Z,6.90
2019-05-01T04:37:54.186Z,7.20
2019-05-01T04:38:54.170Z,6.60
2019-05-01T04:39:54.199Z,6.90
2019-05-01T04:40:54.167Z,6.50
2019-05-01T04:41:54.153Z,6.20
2019-05-01T04:42:54.129Z,5.90
2019-05-01T04:43:54.116Z,6.00
2019-05-01T04:44:54.121Z,6.40
2019-05-01T04:45:54.096Z,6.70
2019-05-01T04:46:54.092Z,6.90
2019-05-01T04:47:54.089Z,7.80
2019-05-01T04:48:54.068Z,10.30
2019-05-01T04:49:54.071Z,8.70
2019-05-01T04:50:54.050Z,8.20
2019-05-01T04:51:54.035Z,9.00
2019-05-01T04:52:54.025Z,8.90
2019-05-01T04:53:54.014Z,9.00
2019-05-01T04:54:54.020Z,9.20
2019-05-01T04:55:53.990Z,11.00
2019-05-01T04:56:53.977Z,11.00
2019-05-01T04:57:53.983Z,14.80
2019-05-01T04:58:53.955Z,15.70
2019-05-01T04:59:53.965Z,14.60
2019-05-01T05:00:53.942Z,15.90
2019-05-01T05:01:56.803Z,15.80
2019-05-01T05:03:04.015Z,15.30
2019-05-01T05:03:54.910Z,14.90
2019-05-01T05:04:53.929Z,15.70
2019-05-01T05:05:53.889Z,14.70
2019-05-01T05:06:53.873Z,14.80
2019-05-01T05:07:53.866Z,14.70
2019-05-01T05:08:53.861Z,15.20
2019-05-01T05:09:53.845Z,15.20
2019-05-01T05:10:53.847Z,14.80
2019-05-01T05:11:53.827Z,15.40
2019-05-01T05:12:53.806Z,15.30
2019-05-01T05:13:53.800Z,14.90
2019-05-01T05:14:53.791Z,15.20
2019-05-01T05:15:53.801Z,14.80
2019-05-01T05:16:53.775Z,15.30
2019-05-01T05:17:53.761Z,15.80
2019-05-01T05:18:53.749Z,14.90
2019-05-01T05:19:53.740Z,15.20
2019-05-01T05:20:53.748Z,15.60
2019-05-01T05:21:53.719Z,16.10
2019-05-01T05:22:53.704Z,16.10
2019-05-01T05:23:53.696Z,15.90
2019-05-01T05:24:53.686Z,15.90
2019-05-01T05:25:53.684Z,16.90
2019-05-01T05:26:53.663Z,16.60
2019-05-01T05:27:53.791Z,17.20
2019-05-01T05:28:53.647Z,16.80
2019-05-01T05:29:53.721Z,16.30
2019-05-01T05:30:53.641Z,15.60
2019-05-01T05:31:53.614Z,16.80
2019-05-01T05:32:53.604Z,16.10
2019-05-01T05:33:53.598Z,15.70
2019-05-01T05:34:53.580Z,16.20
2019-05-01T05:35:53.574Z,16.40
2019-05-01T05:36:53.572Z,16.00
2019-05-01T05:37:53.549Z,15.70
2019-05-01T05:38:53.537Z,15.20
2019-05-01T05:39:53.528Z,15.00
2019-05-01T05:40:53.520Z,14.80
2019-05-01T05:41:53.515Z,15.20
2019-05-01T05:42:53.495Z,15.50
2019-05-01T05:43:53.485Z,15.20
2019-05-01T05:44:53.477Z,16.00
2019-05-01T05:45:53.461Z,15.60
2019-05-01T05:46:53.471Z,14.90
2019-05-01T05:47:53.444Z,14.50
2019-05-01T05:48:53.435Z,15.60
2019-05-01T05:49:53.421Z,15.10
2019-05-01T05:50:53.414Z,14.60
2019-05-01T05:51:53.412Z,14.20
2019-05-01T05:52:53.486Z,14.50
2019-05-01T05:53:53.448Z,15.00
2019-05-01T05:54:53.376Z,13.50
2019-05-01T05:55:53.439Z,14.80
2019-05-01T05:56:53.374Z,15.40
2019-05-01T05:57:53.340Z,16.30
2019-05-01T05:58:53.417Z,15.80
2019-05-01T05:59:53.342Z,16.60
2019-05-01T06:00:53.307Z,16.70
2019-05-01T06:01:53.296Z,17.40
2019-05-01T06:02:53.295Z,16.90
2019-05-01T06:03:53.273Z,16.60
2019-05-01T06:04:53.265Z,17.50
2019-05-01T06:05:53.253Z,19.00
2019-05-01T06:06:53.247Z,17.90
2019-05-01T06:07:53.245Z,17.70
2019-05-01T06:08:53.229Z,18.60
2019-05-01T06:09:53.206Z,19.40
2019-05-01T06:10:53.526Z,20.40
2019-05-01T06:11:53.187Z,20.50
2019-05-01T06:12:53.207Z,21.30
2019-05-01T06:13:57.168Z,20.10
2019-05-01T06:14:54.152Z,20.30
2019-05-01T06:15:53.143Z,20.70
2019-05-01T06:16:54.061Z,21.40
2019-05-01T06:17:53.132Z,20.90
2019-05-01T06:18:53.132Z,20.20
2019-05-01T06:19:53.104Z,19.60
2019-05-01T06:20:57.133Z,20.50
2019-05-01T06:21:54.078Z,20.10
2019-05-01T06:22:53.087Z,19.00
2019-05-01T06:23:57.744Z,19.80
2019-05-01T06:24:54.045Z,19.80
2019-05-01T06:25:54.112Z,20.30
2019-05-01T06:26:54.032Z,19.70
2019-05-01T06:27:53.014Z,20.30
2019-05-01T06:28:55.953Z,19.40
2019-05-01T06:29:53.994Z,19.60
2019-05-01T06:30:52.992Z,19.00
2019-05-01T06:31:53.891Z,19.80
2019-05-01T06:32:53.962Z,42.00
2019-05-01T06:33:54.755Z,40.30
2019-05-01T06:34:52.958Z,35.90
2019-05-01T06:35:52.926Z,30.60
2019-05-01T06:36:52.915Z,65.50
2019-05-01T06:37:56.040Z,39.70
2019-05-01T06:38:53.893Z,37.70
2019-05-01T06:39:52.901Z,34.60
2019-05-01T06:40:57.635Z,35.60
2019-05-01T06:41:53.862Z,34.10
2019-05-01T06:42:52.858Z,33.50
2019-05-01T06:43:57.023Z,33.30
2019-05-01T06:44:53.840Z,34.00
2019-05-01T06:45:52.817Z,32.60
2019-05-01T06:46:52.805Z,31.70
2019-05-01T06:47:52.798Z,30.90
2019-05-01T06:48:53.363Z,30.30
2019-05-01T06:49:52.784Z,43.60
2019-05-01T06:50:52.760Z,51.50
2019-05-01T06:51:53.612Z,47.30
2019-05-01T06:52:52.743Z,42.50
2019-05-01T06:53:52.735Z,39.30
2019-05-01T06:54:53.599Z,37.10
2019-05-01T06:55:52.712Z,34.90
2019-05-01T06:56:52.700Z,36.40
2019-05-01T06:57:52.686Z,34.60
2019-05-01T06:58:55.225Z,34.50
2019-05-01T06:59:52.667Z,32.00
2019-05-01T07:00:52.669Z,31.80
2019-05-01T07:01:53.075Z,32.50
2019-05-01T07:02:53.635Z,29.90
2019-05-01T07:04:03.411Z,30.00
2019-05-01T07:04:53.613Z,30.60
2019-05-01T07:05:54.534Z,28.60
2019-05-01T07:06:52.585Z,28.80
2019-05-01T07:07:53.189Z,29.20
2019-05-01T07:08:52.573Z,28.40
2019-05-01T07:09:52.553Z,28.00
2019-05-01T07:10:52.577Z,27.80
2019-05-01T07:11:54.436Z,26.30
2019-05-01T07:12:52.525Z,26.50
2019-05-01T07:13:55.498Z,26.00
2019-05-01T07:14:52.523Z,25.80
2019-05-01T07:15:52.507Z,25.70
2019-05-01T07:16:52.488Z,26.50
2019-05-01T07:17:52.461Z,26.30
2019-05-01T07:18:52.458Z,25.20
2019-05-01T07:19:52.443Z,24.60
2019-05-01T07:20:53.212Z,24.40
2019-05-01T07:21:52.451Z,23.10
2019-05-01T07:22:52.417Z,23.10
2019-05-01T07:23:53.403Z,24.90
2019-05-01T07:24:52.393Z,22.70
2019-05-01T07:25:52.380Z,23.30
2019-05-01T07:26:52.555Z,23.90
2019-05-01T07:27:53.882Z,22.60
2019-05-01T07:28:53.385Z,22.90
2019-05-01T07:29:52.337Z,22.20
2019-05-01T07:30:54.863Z,24.00
2019-05-01T07:31:52.338Z,22.30
2019-05-01T07:32:52.314Z,22.10
2019-05-01T07:33:52.468Z,22.30
2019-05-01T07:34:52.292Z,22.70
2019-05-01T07:35:53.955Z,22.10
2019-05-01T07:36:52.280Z,23.10
2019-05-01T07:37:52.264Z,21.50
2019-05-01T07:38:52.243Z,21.60
2019-05-01T07:39:52.249Z,21.00
2019-05-01T07:40:52.224Z,21.40
2019-05-01T07:41:52.208Z,21.70
2019-05-01T07:42:52.216Z,21.60
2019-05-01T07:43:54.914Z,22.70
2019-05-01T07:44:53.191Z,22.20
2019-05-01T07:45:52.187Z,22.00
2019-05-01T07:46:54.084Z,21.10
2019-05-01T07:47:52.160Z,20.60
2019-05-01T07:48:52.164Z,20.60
2019-05-01T07:49:52.739Z,20.40
2019-05-01T07:50:52.122Z,21.90
2019-05-01T07:51:52.096Z,21.10
2019-05-01T07:52:53.880Z,21.50
2019-05-01T07:53:52.079Z,21.40
2019-05-01T07:54:52.067Z,21.10
2019-05-01T07:55:52.732Z,20.90
2019-05-01T07:56:52.045Z,20.90
2019-05-01T07:57:52.054Z,21.20
2019-05-01T07:58:53.179Z,19.80
2019-05-01T07:59:52.048Z,20.70
2019-05-01T08:00:52.007Z,21.50
2019-05-01T08:01:54.356Z,20.60
2019-05-01T08:02:52.011Z,21.00
2019-05-01T08:03:51.980Z,20.30
2019-05-01T08:04:51.975Z,20.60
2019-05-01T08:05:51.950Z,20.10
2019-05-01T08:06:56.510Z,20.60
2019-05-01T08:07:52.968Z,19.70
2019-05-01T08:08:51.949Z,19.90
2019-05-01T08:09:51.906Z,20.70
2019-05-01T08:10:51.900Z,19.90
2019-05-01T08:11:51.884Z,20.50
2019-05-01T08:12:55.456Z,20.80
2019-05-01T08:13:52.866Z,20.10
2019-05-01T08:14:52.326Z,20.10
2019-05-01T08:15:51.867Z,21.40
2019-05-01T08:16:51.850Z,19.90
2019-05-01T08:17:53.148Z,20.30
2019-05-01T08:18:51.822Z,20.30
2019-05-01T08:19:51.801Z,20.30
2019-05-01T08:20:51.792Z,20.00
2019-05-01T08:21:51.856Z,20.40
2019-05-01T08:22:51.899Z,20.10
2019-05-01T08:23:51.799Z,20.40
2019-05-01T08:24:53.788Z,19.90
2019-05-01T08:25:52.768Z,20.00
2019-05-01T08:26:51.767Z,19.90
2019-05-01T08:27:56.255Z,20.30
2019-05-01T08:28:52.727Z,20.50
2019-05-01T08:29:51.689Z,20.60
2019-05-01T08:30:52.704Z,20.50
2019-05-01T08:31:51.710Z,20.60
2019-05-01T08:32:51.658Z,20.90
2019-05-01T08:33:51.710Z,21.70
2019-05-01T08:34:55.748Z,20.40
2019-05-01T08:35:52.642Z,21.50
2019-05-01T08:36:51.627Z,21.20
2019-05-01T08:37:53.838Z,20.80
2019-05-01T08:38:52.641Z,21.40
2019-05-01T08:39:51.603Z,21.70
2019-05-01T08:40:55.464Z,21.40
2019-05-01T08:41:52.595Z,21.70
2019-05-01T08:42:51.559Z,21.20
2019-05-01T08:43:54.189Z,21.60
2019-05-01T08:44:51.548Z,22.10
2019-05-01T08:45:51.534Z,21.80
2019-05-01T08:46:52.214Z,21.30
2019-05-01T08:47:51.511Z,21.80
2019-05-01T08:48:51.517Z,21.40
2019-05-01T08:49:51.479Z,21.00
2019-05-01T08:50:54.694Z,21.90
2019-05-01T08:51:52.462Z,20.80
2019-05-01T08:52:51.455Z,20.50
2019-05-01T08:53:52.792Z,21.20
2019-05-01T08:54:54.847Z,34.70
2019-05-01T08:55:51.426Z,32.00
2019-05-01T08:56:52.880Z,29.00
2019-05-01T08:57:52.397Z,25.50
2019-05-01T08:58:51.388Z,31.00
2019-05-01T08:59:51.397Z,36.60
2019-05-01T09:00:51.374Z,35.00
2019-05-01T09:02:08.166Z,31.50
2019-05-01T09:02:52.346Z,30.60
2019-05-01T09:03:54.159Z,28.40
2019-05-01T09:05:01.609Z,26.60
2019-05-01T09:05:57.209Z,24.60
2019-05-01T09:06:52.337Z,25.60
2019-05-01T09:07:55.798Z,23.70
2019-05-01T09:08:52.288Z,23.10
2019-05-01T09:09:51.297Z,23.90
2019-05-01T09:10:54.681Z,24.90
2019-05-01T09:11:54.653Z,23.70
2019-05-01T09:12:52.066Z,24.00
2019-05-01T09:13:54.573Z,24.40
2019-05-01T09:14:52.266Z,24.10
2019-05-01T09:15:51.212Z,24.20
2019-05-01T09:16:52.525Z,22.70
2019-05-01T09:17:51.195Z,22.70
2019-05-01T09:18:51.188Z,23.20
2019-05-01T09:19:51.190Z,22.30
2019-05-01T09:20:51.162Z,23.10
2019-05-01T09:21:51.159Z,23.90
2019-05-01T09:22:51.141Z,23.10
2019-05-01T09:23:53.109Z,22.80
2019-05-01T09:24:51.130Z,22.50
2019-05-01T09:25:51.105Z,22.20
2019-05-01T09:26:51.572Z,21.60
2019-05-01T09:27:51.081Z,21.70
2019-05-01T09:28:51.072Z,22.30
2019-05-01T09:29:51.637Z,21.70
2019-05-01T09:30:51.048Z,22.00
2019-05-01T09:31:51.037Z,21.70
2019-05-01T09:32:54.235Z,21.30
2019-05-01T09:33:51.023Z,20.90
2019-05-01T09:34:51.014Z,20.80
2019-05-01T09:35:51.031Z,20.50
2019-05-01T09:36:50.992Z,20.40
2019-05-01T09:37:50.977Z,20.30
2019-05-01T09:38:50.963Z,19.90
2019-05-01T09:39:51.042Z,21.40
2019-05-01T09:40:50.982Z,19.90
2019-05-01T09:41:50.937Z,20.50
2019-05-01T09:42:54.704Z,20.00
2019-05-01T09:43:51.916Z,20.40
2019-05-01T09:44:50.906Z,19.60
2019-05-01T09:45:50.914Z,19.90
2019-05-01T09:46:50.939Z,19.90
2019-05-01T09:47:50.930Z,19.70
2019-05-01T09:48:50.854Z,25.90
2019-05-01T09:49:53.898Z,22.80
2019-05-01T09:50:51.851Z,20.30
2019-05-01T09:51:50.839Z,20.70
2019-05-01T09:52:50.817Z,21.30
2019-05-01T09:53:50.812Z,21.70
2019-05-01T09:54:50.793Z,20.90
2019-05-01T09:55:50.787Z,19.70
2019-05-01T09:56:50.827Z,19.90
2019-05-01T09:57:50.758Z,19.80
2019-05-01T09:58:50.758Z,20.60
2019-05-01T09:59:50.749Z,20.20
2019-05-01T10:00:52.736Z,20.80
2019-05-01T10:01:50.742Z,20.30
2019-05-01T10:02:50.719Z,19.90
2019-05-01T10:03:54.666Z,19.40
2019-05-01T10:04:50.698Z,19.30
2019-05-01T10:05:50.688Z,19.40
2019-05-01T10:06:52.340Z,19.20
2019-05-01T10:07:50.668Z,19.70
2019-05-01T10:08:50.642Z,20.20
2019-05-01T10:09:52.085Z,19.50
2019-05-01T10:10:50.624Z,19.80
2019-05-01T10:11:50.623Z,19.70
2019-05-01T10:12:50.622Z,18.90
2019-05-01T10:13:53.750Z,18.50
2019-05-01T10:14:51.624Z,18.00
2019-05-01T10:15:50.585Z,18.60
2019-05-01T10:16:50.559Z,18.80
2019-05-01T10:17:50.593Z,18.70
2019-05-01T10:18:50.550Z,18.30
2019-05-01T10:19:50.536Z,18.30
2019-05-01T10:20:50.523Z,18.10
2019-05-01T10:21:50.660Z,18.40
2019-05-01T10:22:50.522Z,18.30
2019-05-01T10:23:51.698Z,19.30
2019-05-01T10:24:50.487Z,19.40
2019-05-01T10:25:50.468Z,18.20
2019-05-01T10:26:50.462Z,19.80
2019-05-01T10:27:52.846Z,19.30
2019-05-01T10:28:51.606Z,18.90
2019-05-01T10:29:50.437Z,18.30
2019-05-01T10:30:50.434Z,18.30
2019-05-01T10:31:51.129Z,18.60
2019-05-01T10:32:52.839Z,18.40
2019-05-01T10:33:51.432Z,17.90
2019-05-01T10:34:50.378Z,18.40
2019-05-01T10:35:50.455Z,18.10
2019-05-01T10:36:54.470Z,17.70
2019-05-01T10:37:51.340Z,17.20
2019-05-01T10:38:50.343Z,17.70
2019-05-01T10:39:54.079Z,17.90
2019-05-01T10:40:51.305Z,17.60
2019-05-01T10:41:50.316Z,16.90
2019-05-01T10:42:50.301Z,16.90
2019-05-01T10:43:50.388Z,16.10
2019-05-01T10:44:50.276Z,16.30
2019-05-01T10:45:50.422Z,17.00
2019-05-01T10:46:50.255Z,16.70
2019-05-01T10:47:50.240Z,15.90
2019-05-01T10:48:50.417Z,16.10
2019-05-01T10:49:50.246Z,15.90
2019-05-01T10:50:50.242Z,16.00
2019-05-01T10:51:50.481Z,15.20
2019-05-01T10:52:50.194Z,15.70
2019-05-01T10:53:50.178Z,16.30
2019-05-01T10:54:50.204Z,15.40
2019-05-01T10:55:50.153Z,15.80
2019-05-01T10:56:50.138Z,15.40
2019-05-01T10:57:50.128Z,15.00
2019-05-01T10:58:50.114Z,20.50
2019-05-01T10:59:50.126Z,18.40
2019-05-01T11:00:50.129Z,17.30
2019-05-01T11:01:50.097Z,15.50
2019-05-01T11:02:50.080Z,15.70
2019-05-01T11:03:50.068Z,15.70
2019-05-01T11:04:50.068Z,15.60
2019-05-01T11:05:55.964Z,15.80
2019-05-01T11:06:51.038Z,16.10
2019-05-01T11:07:50.023Z,16.50
2019-05-01T11:08:50.011Z,17.30
2019-05-01T11:09:50.020Z,17.20
2019-05-01T11:10:49.995Z,16.50
2019-05-01T11:11:49.988Z,16.00
2019-05-01T11:12:49.975Z,15.80
2019-05-01T11:13:49.989Z,16.20
2019-05-01T11:14:49.964Z,16.10
2019-05-01T11:15:49.932Z,15.20
2019-05-01T11:16:49.929Z,15.30
2019-05-01T11:17:49.920Z,14.80
2019-05-01T11:18:49.913Z,14.80
2019-05-01T11:19:49.914Z,14.60
2019-05-01T11:20:49.884Z,15.20
2019-05-01T11:21:49.879Z,14.20
2019-05-01T11:22:49.879Z,14.70
2019-05-01T11:23:49.855Z,14.60
2019-05-01T11:24:49.856Z,15.00
2019-05-01T11:25:49.829Z,15.00
2019-05-01T11:26:49.818Z,15.20
2019-05-01T11:27:49.821Z,15.70
2019-05-01T11:28:49.822Z,14.10
2019-05-01T11:29:49.826Z,14.20
2019-05-01T11:30:49.785Z,16.10
2019-05-01T11:31:49.787Z,14.80
2019-05-01T11:32:49.761Z,13.90
2019-05-01T11:33:49.747Z,14.70
2019-05-01T11:34:49.752Z,14.10
2019-05-01T11:35:49.727Z,14.20
2019-05-01T11:36:49.719Z,14.90
2019-05-01T11:37:49.698Z,13.80
2019-05-01T11:38:49.690Z,14.10
2019-05-01T11:39:49.704Z,13.60
2019-05-01T11:40:49.701Z,14.70
2019-05-01T11:41:49.675Z,13.90
2019-05-01T11:42:49.658Z,13.40
2019-05-01T11:43:49.639Z,13.50
2019-05-01T11:44:49.643Z,13.90
2019-05-01T11:45:49.660Z,12.60
2019-05-01T11:46:49.623Z,13.20
2019-05-01T11:47:49.631Z,12.80
2019-05-01T11:48:49.593Z,13.80
2019-05-01T11:49:49.635Z,14.00
2019-05-01T11:50:49.685Z,14.10
2019-05-01T11:51:49.574Z,13.50
2019-05-01T11:52:49.549Z,13.60
2019-05-01T11:53:49.550Z,14.40
2019-05-01T11:54:49.524Z,14.10
2019-05-01T11:55:49.541Z,14.30
2019-05-01T11:56:49.501Z,13.80
2019-05-01T11:57:49.494Z,13.10
2019-05-01T11:58:49.520Z,14.10
2019-05-01T11:59:49.476Z,13.90
2019-05-01T12:00:49.496Z,13.60
2019-05-01T12:01:49.546Z,13.20
2019-05-01T12:02:49.455Z,13.70
2019-05-01T12:03:50.160Z,13.80
2019-05-01T12:04:49.588Z,13.10
2019-05-01T12:05:50.184Z,13.00
2019-05-01T12:06:50.721Z,13.00
2019-05-01T12:07:50.174Z,12.60
2019-05-01T12:08:49.381Z,13.20
2019-05-01T12:09:49.415Z,12.60
2019-05-01T12:10:49.354Z,12.70
2019-05-01T12:11:49.392Z,12.30
2019-05-01T12:12:49.341Z,12.60
2019-05-01T12:13:49.366Z,12.00
2019-05-01T12:14:49.354Z,12.50
2019-05-01T12:15:49.368Z,12.80
2019-05-01T12:16:49.364Z,12.50
2019-05-01T12:17:49.346Z,12.50
2019-05-01T12:18:49.284Z,12.00
2019-05-01T12:19:49.257Z,12.40
2019-05-01T12:20:49.276Z,11.90
2019-05-01T12:21:49.242Z,11.70
2019-05-01T12:22:51.361Z,11.30
2019-05-01T12:23:49.230Z,11.10
2019-05-01T12:24:49.212Z,12.00
2019-05-01T12:25:49.205Z,12.20
2019-05-01T12:26:49.230Z,12.10
2019-05-01T12:27:49.734Z,11.50
2019-05-01T12:28:49.165Z,11.50
2019-05-01T12:29:49.154Z,12.40
2019-05-01T12:30:49.157Z,11.90
2019-05-01T12:31:49.129Z,12.20
2019-05-01T12:32:49.160Z,12.10
2019-05-01T12:33:49.105Z,12.10
2019-05-01T12:34:49.100Z,12.00
2019-05-01T12:35:49.135Z,11.70
2019-05-01T12:36:49.084Z,12.00
2019-05-01T12:37:49.082Z,11.40
2019-05-01T12:38:49.120Z,12.80
2019-05-01T12:39:49.063Z,11.90
2019-05-01T12:40:49.062Z,12.10
2019-05-01T12:41:49.073Z,12.10
2019-05-01T12:42:49.048Z,11.40
2019-05-01T12:43:49.031Z,11.10
2019-05-01T12:44:49.002Z,10.70
2019-05-01T12:45:49.032Z,10.90
2019-05-01T12:46:49.005Z,11.40
2019-05-01T12:47:49.053Z,11.20
2019-05-01T12:48:49.063Z,12.60
2019-05-01T12:49:48.986Z,11.60
2019-05-01T12:50:48.982Z,11.70
2019-05-01T12:51:48.949Z,11.20
2019-05-01T12:52:49.013Z,11.70
2019-05-01T12:53:49.031Z,11.60
2019-05-01T12:54:51.830Z,11.40
2019-05-01T12:55:48.914Z,12.60
2019-05-01T12:56:48.909Z,11.50
2019-05-01T12:57:48.904Z,11.40
2019-05-01T12:58:48.941Z,11.10
2019-05-01T12:59:48.862Z,11.10
2019-05-01T13:00:48.834Z,12.10
2019-05-01T13:01:48.825Z,11.90
2019-05-01T13:02:48.830Z,11.80